Time;durP1;ratioP1;P1;durP2;ratioP2;P2;SDS_P1;SDS_P2;PMS_P1;PMS_P2;Temp;Humidity;BMP_temperature;BMP_pressure;BME280_temperature;BME280_humidity;BME280_pressure;Samples;Min_cycle;Max_cycle;Signal;HPM_P1;HPM_P2
2023/07/21 00:02:14;;;;;;;1.50;1.07;;;;;;;;;;5022176;28;88855;-56
2023/07/21 00:04:42;;;;;;;3.27;0.90;;;;;;;;;;5022785;28;89714;-56
2023/07/21 00:07:10;;;;;;;1.13;1.03;;;;;;;;;;5022959;28;87659;-56
2023/07/21 00:09:39;;;;;;;2.57;1.10;;;;;;;;;;5022691;28;88490;-56
2023/07/21 00:12:09;;;;;;;0.87;0.83;;;;;;;;;;5032167;28;88053;-56
2023/07/21 00:14:38;;;;;;;0.97;0.87;;;;;;;;;;5043206;27;87291;-56
2023/07/21 00:17:08;;;;;;;2.13;1.13;;;;;;;;;;5042623;27;87611;-56
2023/07/21 00:19:36;;;;;;;1.00;0.80;;;;;;;;;;5043220;27;88636;-56
2023/07/21 00:22:05;;;;;;;0.70;0.70;;;;;;;;;;5043002;27;87840;-56
2023/07/21 00:24:33;;;;;;;1.00;0.90;;;;;;;;;;5042936;27;87934;-56
2023/07/21 00:27:02;;;;;;;0.80;0.60;;;;;;;;;;5042339;28;87690;-56
2023/07/21 00:29:32;;;;;;;0.87;0.73;;;;;;;;;;5042693;27;88567;-56
2023/07/21 00:32:01;;;;;;;1.57;0.80;;;;;;;;;;5042587;27;87453;-56
2023/07/21 00:34:29;;;;;;;1.07;0.97;;;;;;;;;;5042552;27;87939;-57
2023/07/21 00:36:58;;;;;;;2.00;1.07;;;;;;;;;;5025203;27;88231;-56
2023/07/21 00:39:27;;;;;;;1.70;0.60;;;;;;;;;;5022321;28;89820;-56
2023/07/21 00:41:56;;;;;;;0.53;0.53;;;;;;;;;;5021746;28;88261;-56
2023/07/21 00:44:24;;;;;;;0.63;0.63;;;;;;;;;;5022512;28;87644;-56
2023/07/21 00:46:54;;;;;;;0.57;0.57;;;;;;;;;;5021900;28;87661;-56
2023/07/21 00:49:22;;;;;;;1.50;0.63;;;;;;;;;;5022476;28;88585;-56
2023/07/21 00:51:51;;;;;;;0.53;0.53;;;;;;;;;;5023161;28;88755;-56
2023/07/21 00:54:19;;;;;;;0.50;0.50;;;;;;;;;;5023649;28;87451;-56
2023/07/21 00:56:48;;;;;;;0.50;0.50;;;;;;;;;;5022590;28;87650;-56
2023/07/21 00:59:17;;;;;;;1.47;0.73;;;;;;;;;;5021180;28;88704;-56
2023/07/21 01:01:46;;;;;;;1.10;0.70;;;;;;;;;;5021769;28;88082;-56
2023/07/21 01:04:16;;;;;;;0.90;0.63;;;;;;;;;;5021915;28;88897;-56
2023/07/21 01:06:44;;;;;;;1.10;0.90;;;;;;;;;;5021873;28;87600;-56
2023/07/21 01:09:13;;;;;;;1.60;0.97;;;;;;;;;;5021744;28;87340;-56
2023/07/21 01:11:41;;;;;;;0.93;0.80;;;;;;;;;;5021789;28;87947;-56
2023/07/21 01:14:10;;;;;;;1.03;0.80;;;;;;;;;;5021669;28;87802;-56
2023/07/21 01:16:43;;;;;;;0.70;0.70;;;;;;;;;;5021293;28;88562;-56
2023/07/21 01:19:13;;;;;;;2.73;1.20;;;;;;;;;;5021496;28;87314;-56
2023/07/21 01:21:44;;;;;;;1.43;0.93;;;;;;;;;;5021592;28;88219;-56
2023/07/21 01:24:15;;;;;;;1.43;1.20;;;;;;;;;;5021340;28;87700;-56
2023/07/21 01:26:45;;;;;;;0.90;0.80;;;;;;;;;;5021703;28;87377;-56
2023/07/21 01:29:13;;;;;;;2.70;1.60;;;;;;;;;;5021104;28;88636;-56
2023/07/21 01:31:42;;;;;;;1.43;1.20;;;;;;;;;;5021240;28;88292;-56
2023/07/21 01:34:10;;;;;;;2.50;1.37;;;;;;;;;;5021682;28;88987;-57
2023/07/21 01:36:39;;;;;;;1.53;1.40;;;;;;;;;;5021532;28;87626;-56
2023/07/21 01:39:08;;;;;;;1.13;0.97;;;;;;;;;;5020775;28;88559;-56
2023/07/21 01:41:37;;;;;;;4.33;1.73;;;;;;;;;;5020600;28;88088;-58
2023/07/21 01:44:07;;;;;;;1.53;1.10;;;;;;;;;;5020638;28;89838;-56
2023/07/21 01:46:36;;;;;;;1.87;1.67;;;;;;;;;;5021400;28;87618;-56
2023/07/21 01:49:05;;;;;;;2.10;1.67;;;;;;;;;;5021032;28;88557;-56
2023/07/21 01:51:34;;;;;;;1.73;1.63;;;;;;;;;;5021006;28;88307;-56
2023/07/21 01:54:04;;;;;;;2.83;1.37;;;;;;;;;;5021082;28;88828;-56
2023/07/21 01:56:33;;;;;;;2.73;1.90;;;;;;;;;;5021215;28;87520;-56
2023/07/21 01:59:03;;;;;;;2.53;1.33;;;;;;;;;;5019972;28;89934;-56
2023/07/21 02:01:33;;;;;;;2.40;1.80;;;;;;;;;;5020911;28;89103;-56
2023/07/21 02:04:01;;;;;;;2.47;1.70;;;;;;;;;;5020960;28;87670;-56
2023/07/21 02:06:30;;;;;;;3.53;1.90;;;;;;;;;;5020727;28;87967;-56
2023/07/21 02:08:59;;;;;;;2.40;2.03;;;;;;;;;;5020670;28;88603;-56
2023/07/21 02:11:27;;;;;;;3.33;2.00;;;;;;;;;;5020732;28;88290;-56
2023/07/21 02:13:56;;;;;;;2.37;1.87;;;;;;;;;;5020406;28;88952;-56
2023/07/21 02:16:24;;;;;;;3.80;2.20;;;;;;;;;;5020988;28;88127;-56
2023/07/21 02:18:55;;;;;;;2.80;1.87;;;;;;;;;;5020658;28;89748;-56
2023/07/21 02:21:23;;;;;;;1.93;1.70;;;;;;;;;;5020626;28;88495;-56
2023/07/21 02:23:52;;;;;;;3.10;1.83;;;;;;;;;;5020872;28;88079;-56
2023/07/21 02:26:21;;;;;;;3.50;1.90;;;;;;;;;;5020919;28;87636;-56
2023/07/21 02:28:50;;;;;;;2.10;1.70;;;;;;;;;;5020182;28;87824;-56
2023/07/21 02:31:21;;;;;;;2.40;1.43;;;;;;;;;;5020083;28;88742;-56
2023/07/21 02:33:50;;;;;;;3.10;1.87;;;;;;;;;;5020758;28;89820;-56
2023/07/21 02:36:19;;;;;;;2.20;1.57;;;;;;;;;;5022053;27;87335;-56
2023/07/21 02:38:48;;;;;;;1.93;1.63;;;;;;;;;;5037680;28;88551;-56
2023/07/21 02:41:17;;;;;;;2.93;1.60;;;;;;;;;;5037378;28;88878;-56
2023/07/21 02:43:45;;;;;;;1.37;1.20;;;;;;;;;;5037203;27;87778;-57
2023/07/21 02:46:15;;;;;;;2.47;1.33;;;;;;;;;;5038040;28;88245;-57
2023/07/21 02:48:44;;;;;;;2.23;1.47;;;;;;;;;;5037679;28;87385;-56
2023/07/21 02:51:12;;;;;;;1.90;1.63;;;;;;;;;;5039866;27;89124;-56
2023/07/21 02:53:42;;;;;;;2.17;1.40;;;;;;;;;;5042179;27;89071;-56
2023/07/21 02:56:11;;;;;;;1.33;1.23;;;;;;;;;;5041620;28;88492;-56
2023/07/21 02:58:39;;;;;;;2.20;1.40;;;;;;;;;;5040576;27;88191;-56
2023/07/21 03:01:09;;;;;;;1.60;1.20;;;;;;;;;;5041158;28;89708;-56
2023/07/21 03:03:38;;;;;;;2.70;1.43;;;;;;;;;;5041202;28;88859;-56
2023/07/21 03:06:07;;;;;;;1.90;1.20;;;;;;;;;;5041571;28;87988;-56
2023/07/21 03:08:34;;;;;;;1.87;0.97;;;;;;;;;;5040927;28;89717;-56
2023/07/21 03:11:04;;;;;;;1.33;1.10;;;;;;;;;;5035203;28;95137;-57
2023/07/21 03:13:33;;;;;;;1.83;1.10;;;;;;;;;;5041183;27;87410;-56
2023/07/21 03:16:02;;;;;;;1.47;1.10;;;;;;;;;;5041394;27;88021;-56
2023/07/21 03:18:31;;;;;;;1.33;0.90;;;;;;;;;;5040624;27;88333;-56
2023/07/21 03:21:00;;;;;;;2.07;1.20;;;;;;;;;;5040238;27;87946;-57
2023/07/21 03:23:28;;;;;;;1.37;1.27;;;;;;;;;;5040755;27;88617;-56
2023/07/21 03:25:56;;;;;;;2.40;1.00;;;;;;;;;;5040883;27;87663;-56
2023/07/21 03:28:26;;;;;;;2.13;1.23;;;;;;;;;;5040620;27;87546;-56
2023/07/21 03:30:58;;;;;;;2.10;1.60;;;;;;;;;;5040797;27;87872;-56
2023/07/21 03:33:27;;;;;;;1.73;1.43;;;;;;;;;;5040365;27;88808;-56
2023/07/21 03:36:00;;;;;;;3.47;1.70;;;;;;;;;;5040484;27;87635;-56
2023/07/21 03:38:29;;;;;;;2.80;2.00;;;;;;;;;;5040477;27;89697;-56
2023/07/21 03:41:01;;;;;;;2.40;1.77;;;;;;;;;;5040362;27;89366;-56
2023/07/21 03:43:31;;;;;;;2.73;1.80;;;;;;;;;;5024374;27;88797;-56
2023/07/21 03:46:00;;;;;;;3.20;2.27;;;;;;;;;;5019769;28;88057;-56
2023/07/21 03:48:28;;;;;;;2.60;2.23;;;;;;;;;;5022297;28;89611;-56
2023/07/21 03:50:58;;;;;;;2.83;2.37;;;;;;;;;;5040154;28;89066;-56
2023/07/21 03:53:27;;;;;;;2.53;1.77;;;;;;;;;;5040114;27;87915;-56
2023/07/21 03:56:04;;;;;;;3.13;2.30;;;;;;;;;;5040427;27;87621;-57
2023/07/21 03:58:34;;;;;;;3.00;2.13;;;;;;;;;;5038770;28;88675;-56
2023/07/21 04:01:02;;;;;;;3.27;2.30;;;;;;;;;;5038101;27;88024;-56
2023/07/21 04:03:31;;;;;;;3.13;2.00;;;;;;;;;;5036315;27;87931;-56
2023/07/21 04:06:07;;;;;;;2.20;1.80;;;;;;;;;;5042257;27;87550;-56
2023/07/21 04:08:35;;;;;;;4.67;1.80;;;;;;;;;;5041724;27;87327;-56
2023/07/21 04:11:04;;;;;;;2.27;2.07;;;;;;;;;;5041264;27;87690;-57
2023/07/21 04:13:32;;;;;;;2.90;1.40;;;;;;;;;;5041623;28;88673;-56
2023/07/21 04:16:02;;;;;;;3.87;2.03;;;;;;;;;;5039107;27;87414;-56
2023/07/21 04:18:31;;;;;;;3.10;2.10;;;;;;;;;;5039703;28;88650;-56
2023/07/21 04:20:59;;;;;;;2.33;1.97;;;;;;;;;;5041861;27;89191;-57
2023/07/21 04:23:28;;;;;;;4.10;2.17;;;;;;;;;;5041416;27;87745;-56
2023/07/21 04:25:56;;;;;;;2.57;1.30;;;;;;;;;;5041794;27;87705;-56
2023/07/21 04:28:25;;;;;;;2.13;1.43;;;;;;;;;;5041601;27;88726;-56
2023/07/21 04:30:54;;;;;;;3.70;1.80;;;;;;;;;;5041567;27;89202;-56
2023/07/21 04:33:24;;;;;;;2.77;1.70;;;;;;;;;;5041370;27;87344;-56
2023/07/21 04:35:53;;;;;;;1.60;1.23;;;;;;;;;;5041291;27;87759;-57
2023/07/21 04:38:22;;;;;;;1.80;1.40;;;;;;;;;;5040888;28;89925;-56
2023/07/21 04:40:50;;;;;;;1.57;1.10;;;;;;;;;;5041156;27;88159;-56
2023/07/21 04:43:18;;;;;;;1.53;1.43;;;;;;;;;;5041008;27;88771;-56
2023/07/21 04:45:47;;;;;;;2.20;1.77;;;;;;;;;;5041468;27;87668;-57
2023/07/21 04:48:16;;;;;;;1.63;1.53;;;;;;;;;;5041104;27;89525;-56
2023/07/21 04:50:50;;;;;;;2.70;1.37;;;;;;;;;;5041410;27;87933;-56
2023/07/21 04:53:18;;;;;;;1.67;1.33;;;;;;;;;;5041104;27;87673;-56
2023/07/21 04:55:47;;;;;;;1.50;1.20;;;;;;;;;;5041209;27;87691;-56
2023/07/21 04:58:16;;;;;;;2.00;1.40;;;;;;;;;;5040935;27;88529;-57
2023/07/21 05:01:02;;;;;;;2.63;1.83;;;;;;;;;;5082561;27;87576;-56
2023/07/21 05:03:31;;;;;;;4.87;2.03;;;;;;;;;;5080105;27;87272;-57
2023/07/21 05:05:59;;;;;;;2.77;2.00;;;;;;;;;;5080000;27;87508;-56
2023/07/21 05:08:28;;;;;;;4.03;2.37;;;;;;;;;;5079912;27;89667;-56
2023/07/21 05:10:56;;;;;;;2.90;2.00;;;;;;;;;;5079731;27;87920;-56
2023/07/21 05:13:24;;;;;;;2.20;1.80;;;;;;;;;;5079927;27;87457;-57
2023/07/21 05:15:56;;;;;;;2.10;1.60;;;;;;;;;;5080251;27;87414;-56
2023/07/21 05:18:26;;;;;;;2.20;1.80;;;;;;;;;;5079708;27;87303;-57
2023/07/21 05:20:54;;;;;;;2.43;1.83;;;;;;;;;;5079225;27;89015;-56
2023/07/21 05:23:23;;;;;;;3.30;2.10;;;;;;;;;;5079963;27;87360;-56
2023/07/21 05:26:00;;;;;;;2.67;2.00;;;;;;;;;;5079692;27;87632;-56
2023/07/21 05:28:28;;;;;;;3.23;2.07;;;;;;;;;;5079704;27;88483;-56
2023/07/21 05:30:57;;;;;;;2.43;1.60;;;;;;;;;;5079437;27;88874;-56
2023/07/21 05:33:27;;;;;;;2.17;1.60;;;;;;;;;;5079823;27;87263;-56
2023/07/21 05:35:55;;;;;;;2.93;1.73;;;;;;;;;;5079645;27;87700;-56
2023/07/21 05:38:24;;;;;;;3.30;1.50;;;;;;;;;;5079112;27;88950;-57
2023/07/21 05:40:57;;;;;;;2.03;1.47;;;;;;;;;;5079272;27;88882;-56
2023/07/21 05:43:26;;;;;;;1.80;1.40;;;;;;;;;;5079159;27;87399;-57
2023/07/21 05:45:54;;;;;;;1.43;1.33;;;;;;;;;;5079680;27;87685;-59
2023/07/21 05:48:24;;;;;;;3.10;1.80;;;;;;;;;;5079470;27;88357;-56
2023/07/21 05:50:55;;;;;;;3.10;1.67;;;;;;;;;;5078745;27;88893;-56
2023/07/21 05:53:23;;;;;;;2.07;1.67;;;;;;;;;;5079461;27;87232;-57
2023/07/21 05:55:52;;;;;;;2.20;1.43;;;;;;;;;;5079459;27;87325;-56
2023/07/21 05:58:22;;;;;;;2.87;1.60;;;;;;;;;;5079071;27;88479;-56
2023/07/21 06:00:51;;;;;;;3.00;1.83;;;;;;;;;;5078555;27;89027;-56
2023/07/21 06:03:20;;;;;;;2.67;1.50;;;;;;;;;;5079319;27;87330;-56
2023/07/21 06:05:49;;;;;;;1.90;1.43;;;;;;;;;;5079201;27;87672;-57
2023/07/21 06:08:19;;;;;;;1.33;1.17;;;;;;;;;;5079136;27;89278;-56
2023/07/21 06:10:47;;;;;;;1.40;1.30;;;;;;;;;;5074175;27;88839;-56
2023/07/21 06:13:16;;;;;;;2.53;1.10;;;;;;;;;;5065492;27;87283;-57
2023/07/21 06:15:44;;;;;;;1.43;1.30;;;;;;;;;;5065533;27;87672;-57
2023/07/21 06:18:13;;;;;;;2.37;1.33;;;;;;;;;;5065237;27;89618;-56
2023/07/21 06:20:41;;;;;;;2.47;1.67;;;;;;;;;;5064790;27;87406;-56
2023/07/21 06:23:10;;;;;;;2.47;1.63;;;;;;;;;;5065448;27;87241;-56
2023/07/21 06:25:40;;;;;;;2.97;1.43;;;;;;;;;;5065435;27;87713;-56
2023/07/21 06:28:08;;;;;;;1.33;1.20;;;;;;;;;;5065121;27;87499;-56
2023/07/21 06:30:37;;;;;;;1.53;1.20;;;;;;;;;;5064761;27;88641;-56
2023/07/21 06:33:06;;;;;;;1.90;1.50;;;;;;;;;;5065081;27;87405;-56
2023/07/21 06:35:35;;;;;;;3.50;1.70;;;;;;;;;;5065114;27;87639;-56
2023/07/21 06:38:03;;;;;;;2.50;1.70;;;;;;;;;;5065011;27;88505;-56
2023/07/21 06:40:32;;;;;;;2.13;1.80;;;;;;;;;;5064580;27;89117;-56
2023/07/21 06:43:02;;;;;;;4.07;2.00;;;;;;;;;;5064385;27;87464;-56
2023/07/21 06:45:30;;;;;;;4.00;1.80;;;;;;;;;;5065154;27;87525;-57
2023/07/21 06:47:59;;;;;;;2.40;1.80;;;;;;;;;;5064671;27;88444;-56
2023/07/21 06:50:28;;;;;;;2.03;1.43;;;;;;;;;;5064752;27;88936;-56
2023/07/21 06:52:56;;;;;;;4.00;2.10;;;;;;;;;;5064945;27;87278;-56
2023/07/21 06:55:25;;;;;;;3.10;1.87;;;;;;;;;;5064673;27;87627;-56
2023/07/21 06:57:53;;;;;;;3.33;2.17;;;;;;;;;;5064568;27;88520;-57
2023/07/21 07:00:23;;;;;;;6.73;2.20;;;;;;;;;;5063542;27;88280;-56
2023/07/21 07:02:52;;;;;;;5.40;2.70;;;;;;;;;;5064624;27;87338;-56
2023/07/21 07:05:20;;;;;;;3.00;2.23;;;;;;;;;;5064771;27;87612;-56
2023/07/21 07:07:50;;;;;;;3.50;2.77;;;;;;;;;;5064404;27;88376;-56
2023/07/21 07:10:19;;;;;;;4.40;2.93;;;;;;;;;;5064175;27;87729;-56
2023/07/21 07:12:47;;;;;;;4.33;3.23;;;;;;;;;;5064295;27;87469;-56
2023/07/21 07:15:16;;;;;;;4.37;2.87;;;;;;;;;;5064526;27;87640;-56
2023/07/21 07:17:45;;;;;;;5.53;3.00;;;;;;;;;;5063884;27;88532;-56
2023/07/21 07:20:14;;;;;;;3.90;2.50;;;;;;;;;;5064070;27;88031;-56
2023/07/21 07:22:42;;;;;;;3.57;2.80;;;;;;;;;;5055769;27;90063;-56
2023/07/21 07:25:11;;;;;;;4.33;2.60;;;;;;;;;;5044068;27;87591;-56
2023/07/21 07:27:40;;;;;;;4.30;3.10;;;;;;;;;;5043737;27;88189;-57
2023/07/21 07:30:09;;;;;;;2.50;2.20;;;;;;;;;;5043851;28;87757;-57
2023/07/21 07:32:37;;;;;;;3.00;2.20;;;;;;;;;;5043708;27;87316;-57
2023/07/21 07:35:08;;;;;;;3.20;2.53;;;;;;;;;;5043946;27;87325;-56
2023/07/21 07:37:37;;;;;;;4.90;2.70;;;;;;;;;;5043632;28;88361;-56
2023/07/21 07:40:06;;;;;;;3.20;2.57;;;;;;;;;;5043352;28;88188;-57
2023/07/21 07:42:35;;;;;;;2.57;2.10;;;;;;;;;;5043342;28;87473;-56
2023/07/21 07:45:04;;;;;;;3.67;2.67;;;;;;;;;;5043835;28;87541;-57
2023/07/21 07:47:34;;;;;;;5.77;2.50;;;;;;;;;;5043115;28;89719;-56
2023/07/21 07:50:03;;;;;;;4.73;2.20;;;;;;;;;;5043377;28;88217;-56
2023/07/21 07:52:34;;;;;;;4.37;2.10;;;;;;;;;;5043564;27;87481;-56
2023/07/21 07:55:02;;;;;;;3.33;2.10;;;;;;;;;;5044021;28;87165;-56
2023/07/21 07:57:31;;;;;;;2.40;2.20;;;;;;;;;;5043619;27;88478;-56
2023/07/21 07:59:59;;;;;;;1.77;1.67;;;;;;;;;;5042707;27;87884;-56
2023/07/21 08:02:28;;;;;;;1.73;1.63;;;;;;;;;;5043447;28;87385;-56
2023/07/21 08:04:56;;;;;;;2.93;1.87;;;;;;;;;;5043537;28;87757;-56
2023/07/21 08:07:25;;;;;;;1.57;1.43;;;;;;;;;;5043213;28;88371;-56
2023/07/21 08:09:55;;;;;;;1.90;1.73;;;;;;;;;;5043145;28;88571;-57
2023/07/21 08:12:23;;;;;;;2.80;1.47;;;;;;;;;;5043490;27;87397;-56
2023/07/21 08:14:52;;;;;;;3.13;1.70;;;;;;;;;;5042995;28;87639;-56
2023/07/21 08:17:21;;;;;;;2.47;1.97;;;;;;;;;;5043080;28;88319;-56
2023/07/21 08:19:49;;;;;;;2.53;1.80;;;;;;;;;;5043138;28;88985;-56
2023/07/21 08:22:18;;;;;;;3.20;1.37;;;;;;;;;;5043034;27;87238;-57
2023/07/21 08:24:46;;;;;;;2.17;1.73;;;;;;;;;;5043025;28;87627;-56
2023/07/21 08:27:16;;;;;;;2.30;1.67;;;;;;;;;;5042626;28;87282;-56
2023/07/21 08:29:45;;;;;;;1.70;1.30;;;;;;;;;;5042635;28;87944;-56
2023/07/21 08:32:13;;;;;;;1.50;1.13;;;;;;;;;;5043161;27;87209;-56
2023/07/21 08:34:42;;;;;;;3.87;1.40;;;;;;;;;;5042615;28;87611;-56
2023/07/21 08:37:10;;;;;;;1.27;1.00;;;;;;;;;;5042659;28;88471;-56
2023/07/21 08:39:38;;;;;;;0.73;0.73;;;;;;;;;;5042458;28;87635;-56
2023/07/21 08:42:07;;;;;;;1.20;1.10;;;;;;;;;;5042347;28;87593;-56
2023/07/21 08:44:37;;;;;;;1.20;1.10;;;;;;;;;;5042830;28;87646;-56
2023/07/21 08:47:06;;;;;;;1.77;1.10;;;;;;;;;;5042624;28;88522;-56
2023/07/21 08:49:34;;;;;;;1.53;0.97;;;;;;;;;;5042820;28;87940;-56
2023/07/21 08:52:03;;;;;;;0.70;0.70;;;;;;;;;;5042537;28;87413;-56
2023/07/21 08:54:31;;;;;;;1.30;0.90;;;;;;;;;;5042981;28;87671;-57
2023/07/21 08:57:00;;;;;;;0.80;0.80;;;;;;;;;;5042750;28;89606;-56
2023/07/21 08:59:28;;;;;;;1.57;0.90;;;;;;;;;;5041676;28;87945;-56
2023/07/21 09:01:58;;;;;;;0.97;0.83;;;;;;;;;;5042582;27;87282;-56
2023/07/21 09:04:27;;;;;;;4.53;1.33;;;;;;;;;;5042814;28;87642;-56
2023/07/21 09:06:56;;;;;;;1.03;0.50;;;;;;;;;;5042263;27;88518;-56
2023/07/21 09:09:25;;;;;;;0.97;0.60;;;;;;;;;;5041966;28;87984;-56
2023/07/21 09:12:00;;;;;;;3.00;1.00;;;;;;;;;;5041976;28;87563;-56
2023/07/21 09:14:35;;;;;;;0.70;0.70;;;;;;;;;;5041814;28;87548;-56
2023/07/21 09:17:06;;;;;;;2.37;1.00;;;;;;;;;;5041673;28;88895;-56
2023/07/21 09:19:36;;;;;;;1.37;1.27;;;;;;;;;;5041547;28;89164;-56
2023/07/21 09:22:04;;;;;;;0.87;0.70;;;;;;;;;;5041665;28;87475;-56
2023/07/21 09:24:33;;;;;;;1.80;0.70;;;;;;;;;;5042305;28;87510;-56
2023/07/21 09:27:12;;;;;;;1.20;1.10;;;;;;;;;;5041516;28;88626;-57
2023/07/21 09:29:40;;;;;;;2.03;1.50;;;;;;;;;;5041599;28;89175;-56
2023/07/21 09:32:14;;;;;;;2.60;1.40;;;;;;;;;;5041928;28;87475;-56
2023/07/21 09:34:57;;;;;;;1.60;1.37;;;;;;;;;;5042083;27;87568;-56
2023/07/21 09:37:26;;;;;;;1.97;1.50;;;;;;;;;;5040492;27;88399;-56
2023/07/21 09:39:56;;;;;;;3.03;1.97;;;;;;;;;;5041689;28;88373;-56
2023/07/21 09:42:25;;;;;;;2.77;1.53;;;;;;;;;;5040918;28;87307;-56
2023/07/21 09:44:53;;;;;;;2.07;1.77;;;;;;;;;;5041663;27;87648;-56
2023/07/21 09:47:23;;;;;;;2.30;1.50;;;;;;;;;;5053563;27;88291;-56
2023/07/21 09:49:53;;;;;;;3.60;2.37;;;;;;;;;;5046986;27;88970;-56
2023/07/21 09:52:22;;;;;;;2.87;1.87;;;;;;;;;;5049866;27;87372;-56
2023/07/21 09:54:50;;;;;;;2.60;1.47;;;;;;;;;;5065272;27;87328;-56
2023/07/21 09:57:20;;;;;;;4.10;1.93;;;;;;;;;;5064968;27;88669;-56
2023/07/21 09:59:50;;;;;;;4.07;1.70;;;;;;;;;;5064861;27;87408;-56
2023/07/21 10:02:18;;;;;;;3.77;2.53;;;;;;;;;;5065418;27;87319;-56
2023/07/21 10:04:48;;;;;;;3.77;2.07;;;;;;;;;;5058259;27;87656;-56
2023/07/21 10:07:17;;;;;;;3.53;2.37;;;;;;;;;;5044528;27;88480;-57
2023/07/21 10:09:49;;;;;;;4.20;2.40;;;;;;;;;;5044765;27;89122;-56
2023/07/21 10:12:17;;;;;;;3.60;2.00;;;;;;;;;;5044602;27;87310;-56
2023/07/21 10:14:46;;;;;;;2.93;2.13;;;;;;;;;;5044853;27;87637;-56
2023/07/21 10:17:24;;;;;;;5.33;2.27;;;;;;;;;;5044562;27;88482;-56
2023/07/21 10:20:07;;;;;;;2.03;1.70;;;;;;;;;;5044880;27;88301;-56
2023/07/21 10:22:37;;;;;;;2.13;1.70;;;;;;;;;;5041373;27;87618;-56
2023/07/21 10:25:05;;;;;;;4.17;2.63;;;;;;;;;;5041549;28;88019;-56
2023/07/21 10:27:34;;;;;;;4.97;2.23;;;;;;;;;;5041440;27;87751;-56
2023/07/21 10:30:17;;;;;;;2.80;2.07;;;;;;;;;;5041280;27;87644;-56
2023/07/21 10:32:46;;;;;;;2.20;1.93;;;;;;;;;;5041090;27;87472;-56
2023/07/21 10:35:30;;;;;;;2.50;1.73;;;;;;;;;;5041061;27;87721;-56
2023/07/21 10:38:17;;;;;;;2.10;1.57;;;;;;;;;;5041198;27;87884;-56
2023/07/21 10:40:47;;;;;;;2.90;1.57;;;;;;;;;;5041050;27;88336;-56
2023/07/21 10:43:16;;;;;;;2.07;1.50;;;;;;;;;;5041264;27;87766;-56
2023/07/21 10:45:47;;;;;;;4.23;1.93;;;;;;;;;;5041198;27;88156;-56
2023/07/21 10:48:16;;;;;;;3.57;1.57;;;;;;;;;;5041466;27;89603;-56
2023/07/21 10:50:51;;;;;;;3.10;1.70;;;;;;;;;;5041219;27;87980;-57
2023/07/21 10:53:19;;;;;;;2.13;1.60;;;;;;;;;;5041327;27;87414;-56
2023/07/21 10:55:51;;;;;;;2.77;1.57;;;;;;;;;;5040641;27;87686;-57
2023/07/21 10:58:19;;;;;;;2.07;1.57;;;;;;;;;;5040917;27;88428;-60
2023/07/21 11:00:48;;;;;;;2.40;1.80;;;;;;;;;;5040418;27;89117;-64
2023/07/21 11:03:17;;;;;;;2.10;1.73;;;;;;;;;;5040833;28;87569;-58
2023/07/21 11:05:46;;;;;;;2.47;1.93;;;;;;;;;;5040900;27;88279;-59
2023/07/21 11:08:16;;;;;;;9.50;2.63;;;;;;;;;;5040403;27;88899;-60
2023/07/21 11:10:45;;;;;;;6.43;2.47;;;;;;;;;;5040445;27;89482;-57
2023/07/21 11:13:14;;;;;;;6.33;2.10;;;;;;;;;;5041113;27;87469;-57
2023/07/21 11:15:43;;;;;;;3.73;2.10;;;;;;;;;;5041233;27;87465;-58
2023/07/21 11:18:11;;;;;;;2.83;1.60;;;;;;;;;;5040585;27;88521;-57
2023/07/21 11:20:40;;;;;;;4.10;1.93;;;;;;;;;;5040207;27;88036;-57
2023/07/21 11:23:09;;;;;;;5.00;1.47;;;;;;;;;;5040140;27;87406;-57
2023/07/21 11:25:37;;;;;;;3.80;2.20;;;;;;;;;;5040519;27;87707;-57
2023/07/21 11:28:11;;;;;;;1.73;1.60;;;;;;;;;;5040470;27;88736;-57
2023/07/21 11:30:41;;;;;;;4.10;1.53;;;;;;;;;;5040154;27;89005;-57
2023/07/21 11:33:09;;;;;;;3.33;1.90;;;;;;;;;;5039985;27;87556;-57
2023/07/21 11:35:43;;;;;;;3.17;2.00;;;;;;;;;;5040618;27;87711;-57
2023/07/21 11:38:11;;;;;;;3.47;1.70;;;;;;;;;;5040164;27;87911;-58
2023/07/21 11:40:40;;;;;;;5.67;1.90;;;;;;;;;;5040291;28;88125;-58
2023/07/21 11:43:09;;;;;;;3.33;1.63;;;;;;;;;;5039746;27;88250;-58
2023/07/21 11:45:39;;;;;;;3.47;1.77;;;;;;;;;;5040141;27;87702;-58
2023/07/21 11:48:16;;;;;;;3.20;1.70;;;;;;;;;;5039281;27;87441;-58
2023/07/21 11:50:49;;;;;;;2.47;1.80;;;;;;;;;;5039502;28;87477;-58
2023/07/21 11:53:18;;;;;;;4.53;2.00;;;;;;;;;;5039863;28;87508;-58
2023/07/21 11:55:46;;;;;;;2.93;1.67;;;;;;;;;;5040002;27;87686;-58
2023/07/21 11:58:14;;;;;;;3.37;1.43;;;;;;;;;;5039923;27;88836;-58
2023/07/21 12:00:43;;;;;;;3.00;1.60;;;;;;;;;;5039210;27;87831;-57
2023/07/21 12:03:12;;;;;;;2.53;1.70;;;;;;;;;;5039807;27;87470;-58
2023/07/21 12:05:43;;;;;;;2.63;1.90;;;;;;;;;;5040221;27;87726;-59
2023/07/21 12:08:12;;;;;;;3.80;1.30;;;;;;;;;;5039097;27;88347;-58
2023/07/21 12:10:41;;;;;;;2.70;2.10;;;;;;;;;;5039517;27;88169;-59
2023/07/21 12:13:09;;;;;;;1.43;1.33;;;;;;;;;;5039706;27;87238;-58
2023/07/21 12:15:37;;;;;;;2.77;1.70;;;;;;;;;;5039495;27;87702;-58
2023/07/21 12:18:07;;;;;;;2.60;1.53;;;;;;;;;;5039615;27;89183;-58
2023/07/21 12:20:35;;;;;;;2.37;1.47;;;;;;;;;;5039044;27;87655;-58
2023/07/21 12:23:05;;;;;;;1.80;1.60;;;;;;;;;;5037785;27;87497;-58
2023/07/21 12:25:34;;;;;;;2.47;1.50;;;;;;;;;;5039461;28;87607;-58
2023/07/21 12:28:04;;;;;;;3.60;1.80;;;;;;;;;;5039371;28;90224;-58
2023/07/21 12:30:32;;;;;;;0.83;0.83;;;;;;;;;;5039644;28;88337;-58
2023/07/21 12:33:02;;;;;;;4.20;1.80;;;;;;;;;;5039337;28;87619;-58
2023/07/21 12:35:31;;;;;;;4.03;1.80;;;;;;;;;;5039218;28;87531;-58
2023/07/21 12:37:59;;;;;;;3.47;1.70;;;;;;;;;;5039389;28;88815;-58
2023/07/21 12:40:29;;;;;;;3.07;1.60;;;;;;;;;;5039006;28;89137;-58
2023/07/21 12:42:58;;;;;;;1.60;1.50;;;;;;;;;;5038907;28;87488;-58
2023/07/21 12:45:28;;;;;;;2.63;1.63;;;;;;;;;;5039129;28;87946;-58
2023/07/21 12:47:56;;;;;;;1.53;1.23;;;;;;;;;;5039089;28;88508;-58
2023/07/21 12:50:25;;;;;;;1.73;1.50;;;;;;;;;;5039239;28;88277;-58
2023/07/21 12:52:53;;;;;;;3.60;2.23;;;;;;;;;;5039369;27;87486;-58
2023/07/21 12:55:22;;;;;;;4.03;1.97;;;;;;;;;;5039496;28;87513;-58
2023/07/21 12:57:51;;;;;;;3.30;2.23;;;;;;;;;;5038976;28;88584;-58
2023/07/21 13:00:20;;;;;;;4.70;2.30;;;;;;;;;;5038771;28;89028;-58
2023/07/21 13:02:49;;;;;;;3.77;1.90;;;;;;;;;;5039199;27;87738;-58
2023/07/21 13:05:18;;;;;;;2.50;1.73;;;;;;;;;;5038581;28;87757;-57
2023/07/21 13:07:47;;;;;;;2.27;2.03;;;;;;;;;;5038686;28;89743;-57
2023/07/21 13:10:15;;;;;;;5.73;2.20;;;;;;;;;;5038853;28;89145;-58
2023/07/21 13:12:43;;;;;;;2.83;1.53;;;;;;;;;;5038941;27;87539;-57
2023/07/21 13:15:13;;;;;;;4.00;1.87;;;;;;;;;;5039006;28;88322;-58
2023/07/21 13:17:42;;;;;;;7.53;1.93;;;;;;;;;;5038872;28;88547;-57
2023/07/21 13:20:13;;;;;;;2.23;1.47;;;;;;;;;;5038554;27;89337;-59
2023/07/21 13:22:42;;;;;;;4.27;1.93;;;;;;;;;;5042748;28;87547;-58
2023/07/21 13:25:10;;;;;;;2.50;1.70;;;;;;;;;;5042366;27;88145;-57
2023/07/21 13:27:39;;;;;;;2.70;1.77;;;;;;;;;;5042232;28;87654;-58
2023/07/21 13:30:08;;;;;;;5.57;2.33;;;;;;;;;;5041768;28;88103;-57
2023/07/21 13:32:38;;;;;;;6.73;1.90;;;;;;;;;;5041934;28;87523;-59
2023/07/21 13:35:07;;;;;;;2.13;1.70;;;;;;;;;;5042315;27;87960;-57
2023/07/21 13:37:36;;;;;;;3.37;1.40;;;;;;;;;;5041654;28;89638;-58
2023/07/21 13:40:05;;;;;;;2.60;1.73;;;;;;;;;;5042027;28;88186;-58
2023/07/21 13:42:34;;;;;;;3.00;1.90;;;;;;;;;;5041805;28;87534;-58
2023/07/21 13:45:02;;;;;;;3.73;1.77;;;;;;;;;;5042154;28;87618;-58
2023/07/21 13:47:30;;;;;;;5.73;2.50;;;;;;;;;;5042614;28;89534;-58
2023/07/21 13:50:00;;;;;;;2.77;1.97;;;;;;;;;;5041831;27;88275;-58
2023/07/21 13:52:29;;;;;;;2.20;1.87;;;;;;;;;;5042343;28;87484;-58
2023/07/21 13:54:58;;;;;;;4.33;2.27;;;;;;;;;;5041771;28;88004;-59
2023/07/21 13:57:26;;;;;;;3.87;1.73;;;;;;;;;;5041471;28;89777;-57
2023/07/21 13:59:55;;;;;;;3.50;1.67;;;;;;;;;;5041693;28;87937;-58
2023/07/21 14:02:23;;;;;;;4.80;2.03;;;;;;;;;;5041727;28;87380;-58
2023/07/21 14:04:52;;;;;;;2.00;1.60;;;;;;;;;;5041545;28;87780;-58
2023/07/21 14:07:22;;;;;;;3.80;1.93;;;;;;;;;;5041752;28;88847;-58
2023/07/21 14:09:51;;;;;;;7.10;2.33;;;;;;;;;;5041684;28;88926;-58
2023/07/21 14:12:21;;;;;;;2.73;2.00;;;;;;;;;;5042216;28;87922;-58
2023/07/21 14:14:49;;;;;;;3.83;1.87;;;;;;;;;;5041802;28;87817;-58
2023/07/21 14:17:18;;;;;;;1.83;1.63;;;;;;;;;;5041096;28;88572;-58
2023/07/21 14:19:46;;;;;;;3.60;1.87;;;;;;;;;;5040903;28;88737;-58
2023/07/21 14:22:15;;;;;;;2.43;1.40;;;;;;;;;;5041440;27;87437;-58
2023/07/21 14:24:45;;;;;;;2.93;1.70;;;;;;;;;;5041328;28;87410;-58
2023/07/21 14:27:13;;;;;;;2.27;1.60;;;;;;;;;;5041200;28;88444;-58
2023/07/21 14:29:42;;;;;;;3.30;1.60;;;;;;;;;;5041294;28;88253;-58
2023/07/21 14:32:10;;;;;;;2.07;1.63;;;;;;;;;;5040722;27;87322;-58
2023/07/21 14:34:39;;;;;;;2.73;2.20;;;;;;;;;;5041765;28;87497;-58
2023/07/21 14:37:08;;;;;;;2.80;1.70;;;;;;;;;;5041223;28;89974;-58
2023/07/21 14:39:37;;;;;;;3.93;1.70;;;;;;;;;;5041359;27;87425;-56
2023/07/21 14:42:07;;;;;;;8.97;1.90;;;;;;;;;;5040380;28;87464;-57
2023/07/21 14:44:36;;;;;;;5.20;2.00;;;;;;;;;;5040617;28;87631;-58
2023/07/21 14:47:05;;;;;;;4.30;1.80;;;;;;;;;;5040821;28;88528;-58
2023/07/21 14:49:33;;;;;;;3.43;1.80;;;;;;;;;;5040982;27;87869;-58
2023/07/21 14:52:01;;;;;;;3.10;1.97;;;;;;;;;;5041042;28;87544;-59
2023/07/21 14:54:30;;;;;;;2.50;1.60;;;;;;;;;;5041298;28;87400;-58
2023/07/21 14:56:59;;;;;;;3.27;1.93;;;;;;;;;;5040691;28;89620;-59